Time;durP1;ratioP1;P1;durP2;ratioP2;P2;SDS_P1;SDS_P2;PMS_P1;PMS_P2;Temp;Humidity;BMP_temperature;BMP_pressure;BME280_temperature;BME280_humidity;BME280_pressure;Samples;Min_cycle;Max_cycle;Signal;HPM_P1;HPM_P2
2022/10/20 00:01:09;;;;;;;5.27;4.97;;;;;;;12.91;97.38;95852.81;4360251;32;20189;-62
2022/10/20 00:03:35;;;;;;;8.80;5.90;;;;;;;12.89;97.70;95841.66;4331719;32;20185;-62
2022/10/20 00:06:09;;;;;;;6.47;5.83;;;;;;;12.90;98.04;95848.56;4342611;32;20264;-62
2022/10/20 00:08:35;;;;;;;7.03;6.43;;;;;;;12.90;98.40;95846.69;4347501;32;20184;-62
2022/10/20 00:11:02;;;;;;;6.40;5.93;;;;;;;12.94;98.81;95855.69;4336280;32;20272;-62
2022/10/20 00:13:28;;;;;;;6.53;6.10;;;;;;;12.89;99.77;95850.44;4325004;32;20200;-62
2022/10/20 00:15:55;;;;;;;7.40;6.67;;;;;;;12.91;100.00;95856.28;4344326;32;20182;-62
2022/10/20 00:18:22;;;;;;;7.30;6.80;;;;;;;12.85;100.00;95852.16;4344146;32;20218;-62
2022/10/20 00:20:47;;;;;;;11.03;8.03;;;;;;;12.90;100.00;95844.03;4351986;32;20303;-62
2022/10/20 00:23:13;;;;;;;8.77;7.90;;;;;;;12.87;100.00;95855.31;4337114;32;20194;-62
2022/10/20 00:25:39;;;;;;;8.00;7.30;;;;;;;13.01;100.00;95848.09;4332975;32;20185;-62
2022/10/20 00:28:05;;;;;;;9.10;7.93;;;;;;;13.06;100.00;95864.00;4328286;33;20204;-62
2022/10/20 00:30:30;;;;;;;15.07;8.13;;;;;;;13.06;100.00;95869.31;4343041;32;20285;-62
2022/10/20 00:32:55;;;;;;;7.40;6.80;;;;;;;13.05;100.00;95873.06;4343796;32;20193;-62
2022/10/20 00:35:21;;;;;;;8.73;7.93;;;;;;;13.06;100.00;95864.00;4330478;32;20186;-62
2022/10/20 00:37:46;;;;;;;13.07;7.63;;;;;;;13.13;100.00;95868.13;4344312;32;20273;-62
2022/10/20 00:40:12;;;;;;;8.23;7.40;;;;;;;12.99;100.00;95858.25;4344707;32;20181;-63
2022/10/20 00:42:37;;;;;;;7.03;6.53;;;;;;;12.96;100.00;95852.72;4342033;32;20253;-62
2022/10/20 00:45:10;;;;;;;9.37;8.63;;;;;;;13.04;100.00;95852.06;4344884;32;20208;-62
2022/10/20 00:47:39;;;;;;;9.13;7.20;;;;;;;13.00;100.00;95843.88;4342494;32;20269;-62
2022/10/20 00:50:16;;;;;;;8.27;7.67;;;;;;;13.11;100.00;95838.31;4331341;32;20200;-62
2022/10/20 00:52:43;;;;;;;7.20;6.67;;;;;;;13.06;100.00;95832.03;4335864;32;20200;-62
2022/10/20 00:55:10;;;;;;;8.33;7.77;;;;;;;13.13;100.00;95830.84;4351626;32;20232;-62
2022/10/20 00:57:36;;;;;;;8.17;7.50;;;;;;;13.07;100.00;95822.16;4340291;32;20184;-62
2022/10/20 01:00:03;;;;;;;7.57;7.00;;;;;;;12.96;100.00;95818.09;4319947;32;20237;-62
2022/10/20 01:02:29;;;;;;;8.47;7.83;;;;;;;12.98;100.00;95806.09;4330710;32;20390;-62
2022/10/20 01:04:54;;;;;;;7.60;5.87;;;;;;;12.97;100.00;95811.69;4330965;32;20185;-62
2022/10/20 01:07:19;;;;;;;7.77;7.07;;;;;;;12.88;100.00;95808.94;4344361;32;20260;-62
2022/10/20 01:09:45;;;;;;;7.47;6.80;;;;;;;12.85;100.00;95819.41;4329772;32;20182;-62
2022/10/20 01:12:29;;;;;;;8.17;7.37;;;;;;;12.75;100.00;95820.38;4350975;32;20196;-62
2022/10/20 01:15:06;;;;;;;7.40;5.63;;;;;;;12.78;100.00;95806.47;4343015;32;20207;-62
2022/10/20 01:18:07;;;;;;;7.83;7.20;;;;;;;12.80;100.00;95801.63;4339591;32;20181;-62
2022/10/20 01:20:52;;;;;;;6.00;5.50;;;;;;;12.83;100.00;95801.06;4334613;32;20201;-62
2022/10/20 01:23:21;;;;;;;8.13;7.50;;;;;;;12.82;100.00;95799.47;4351702;32;20200;-62
2022/10/20 01:25:55;;;;;;;8.00;7.37;;;;;;;12.79;100.00;95799.28;4357595;32;20188;-62
2022/10/20 01:28:32;;;;;;;8.00;7.30;;;;;;;12.76;100.00;95805.97;4345917;32;20193;-62
2022/10/20 01:31:00;;;;;;;7.57;7.03;;;;;;;12.69;100.00;95805.56;4328467;32;20216;-62
2022/10/20 01:33:25;;;;;;;6.30;5.80;;;;;;;12.74;100.00;95806.25;4342081;32;20178;-62
2022/10/20 01:36:04;;;;;;;8.23;7.00;;;;;;;12.81;100.00;95805.88;4342799;32;20173;-63
2022/10/20 01:38:39;;;;;;;7.83;7.30;;;;;;;12.88;100.00;95800.97;4339611;32;20224;-62
2022/10/20 01:41:20;;;;;;;6.90;6.43;;;;;;;12.81;100.00;95803.22;4330293;32;20181;-62
2022/10/20 01:43:48;;;;;;;7.43;6.87;;;;;;;12.68;100.00;95820.75;4344141;32;20186;-62
2022/10/20 01:46:16;;;;;;;7.23;6.60;;;;;;;12.69;100.00;95805.56;4343548;32;20186;-62
2022/10/20 01:48:43;;;;;;;9.30;7.63;;;;;;;12.66;100.00;95795.53;4335813;32;20198;-62
2022/10/20 01:51:09;;;;;;;7.70;6.93;;;;;;;12.66;100.00;95800.84;4349186;32;20189;-62
2022/10/20 01:53:35;;;;;;;6.77;6.23;;;;;;;12.59;100.00;95789.78;4350745;32;20187;-62
2022/10/20 01:56:02;;;;;;;7.13;6.43;;;;;;;12.63;100.00;95790.78;4332217;32;22067;-62
2022/10/20 01:58:27;;;;;;;7.47;6.83;;;;;;;12.64;100.00;95784.38;4351483;32;20185;-62
2022/10/20 02:00:57;;;;;;;5.50;5.13;;;;;;;12.70;100.00;95780.53;4354747;32;20283;-62
2022/10/20 02:03:23;;;;;;;7.20;6.50;;;;;;;12.59;100.00;95789.78;4332284;32;20177;-63
2022/10/20 02:05:51;;;;;;;7.13;6.53;;;;;;;12.73;100.00;95779.94;4337946;32;20224;-62
2022/10/20 02:08:27;;;;;;;6.30;5.43;;;;;;;12.71;100.00;95782.09;4333260;32;20184;-62
2022/10/20 02:10:57;;;;;;;8.33;7.73;;;;;;;12.67;100.00;95786.47;4339922;32;20234;-62
2022/10/20 02:13:25;;;;;;;15.23;7.37;;;;;;;12.48;100.00;95781.19;4340336;32;20231;-63
2022/10/20 02:15:54;;;;;;;6.20;5.80;;;;;;;12.47;100.00;95784.94;4343568;32;20173;-62
2022/10/20 02:18:30;;;;;;;7.23;6.67;;;;;;;12.55;100.00;95783.47;4345654;32;20244;-62
2022/10/20 02:20:59;;;;;;;6.87;6.30;;;;;;;12.75;100.00;95777.78;4339113;32;20203;-62
2022/10/20 02:23:25;;;;;;;7.57;6.80;;;;;;;12.63;100.00;95774.81;4343632;32;20201;-62
2022/10/20 02:25:52;;;;;;;7.63;6.97;;;;;;;12.68;100.00;95772.03;4349758;32;20195;-62
2022/10/20 02:28:20;;;;;;;5.50;5.17;;;;;;;12.75;100.00;95775.09;4352918;32;20201;-62
2022/10/20 02:30:46;;;;;;;6.63;6.13;;;;;;;12.63;100.00;95772.16;4349541;32;20200;-62
2022/10/20 02:33:13;;;;;;;6.67;5.83;;;;;;;12.49;100.00;95774.78;4344292;32;20231;-62
2022/10/20 02:35:42;;;;;;;8.37;7.27;;;;;;;12.57;100.00;95762.66;4340772;33;20220;-62
2022/10/20 02:38:07;;;;;;;7.30;5.77;;;;;;;12.55;100.00;95756.84;4348693;32;20244;-62
2022/10/20 02:40:33;;;;;;;5.83;5.40;;;;;;;12.55;100.00;95751.53;4325740;33;20185;-62
2022/10/20 02:42:58;;;;;;;9.80;5.87;;;;;;;12.59;100.00;95744.53;4328031;32;20177;-63
2022/10/20 02:45:23;;;;;;;6.57;6.10;;;;;;;12.51;100.00;95735.34;4325410;33;20193;-62
2022/10/20 02:47:49;;;;;;;5.70;5.30;;;;;;;12.45;100.00;95746.41;4339690;32;20232;-62
2022/10/20 02:50:15;;;;;;;5.47;5.17;;;;;;;12.29;100.00;95738.69;4353158;32;20212;-62
2022/10/20 02:52:41;;;;;;;6.67;6.20;;;;;;;12.33;100.00;95739.69;4356694;32;20253;-65
2022/10/20 02:55:07;;;;;;;8.40;7.73;;;;;;;12.22;100.00;95740.94;4348149;32;20177;-62
2022/10/20 02:57:32;;;;;;;7.17;6.47;;;;;;;12.29;100.00;95737.88;4357874;32;20181;-62
2022/10/20 02:59:57;;;;;;;6.23;5.63;;;;;;;12.15;100.00;95737.88;4347095;32;20241;-62
2022/10/20 03:02:22;;;;;;;8.33;7.30;;;;;;;12.30;100.00;95739.47;4345423;32;20227;-62
2022/10/20 03:04:48;;;;;;;9.27;7.47;;;;;;;12.45;100.00;95736.56;4331338;32;20196;-62
2022/10/20 03:07:13;;;;;;;7.50;6.90;;;;;;;12.39;100.00;95735.84;4332273;32;20245;-62
2022/10/20 03:09:39;;;;;;;7.87;7.27;;;;;;;12.46;100.00;95726.69;4349946;32;20181;-62
2022/10/20 03:12:04;;;;;;;7.70;7.00;;;;;;;12.57;100.00;95733.41;4346092;32;20174;-62
2022/10/20 03:14:30;;;;;;;5.97;5.57;;;;;;;12.40;100.00;95731.31;4347740;32;20292;-62
2022/10/20 03:16:55;;;;;;;6.13;5.63;;;;;;;12.54;100.00;95734.78;4344501;32;20182;-62
2022/10/20 03:19:20;;;;;;;6.50;5.97;;;;;;;12.55;100.00;95732.91;4327607;32;20204;-62
2022/10/20 03:21:47;;;;;;;6.63;6.10;;;;;;;12.51;100.00;95729.25;4336801;32;20223;-63
2022/10/20 03:24:13;;;;;;;6.80;6.27;;;;;;;12.61;100.00;95731.72;4348641;32;20194;-62
2022/10/20 03:26:38;;;;;;;9.57;6.37;;;;;;;12.60;100.00;95733.59;4346673;32;20200;-62
2022/10/20 03:29:03;;;;;;;6.17;5.67;;;;;;;12.54;100.00;95734.78;4349152;32;20196;-62
2022/10/20 03:31:29;;;;;;;7.30;6.73;;;;;;;12.76;100.00;95742.06;4353781;32;20213;-62
2022/10/20 03:33:54;;;;;;;6.47;5.90;;;;;;;12.80;100.00;95736.94;4335845;32;20177;-62
2022/10/20 03:36:20;;;;;;;5.80;5.50;;;;;;;12.61;100.00;95745.81;4351153;32;20227;-63
2022/10/20 03:38:45;;;;;;;5.83;5.27;;;;;;;12.63;100.00;95748.19;4352608;32;20178;-62
2022/10/20 03:41:10;;;;;;;4.80;4.53;;;;;;;12.74;100.00;95738.91;4333802;32;20216;-63
2022/10/20 03:43:38;;;;;;;7.03;6.50;;;;;;;12.88;100.00;95746.91;4349207;32;20203;-62
2022/10/20 03:46:06;;;;;;;8.37;6.53;;;;;;;12.86;100.00;95735.78;4332331;32;20203;-62
2022/10/20 03:48:32;;;;;;;10.60;5.73;;;;;;;12.84;99.73;95738.72;4336803;32;20268;-62
2022/10/20 03:50:59;;;;;;;10.07;5.63;;;;;;;12.86;99.44;95735.78;4332851;32;20208;-62
2022/10/20 03:53:24;;;;;;;6.37;5.77;;;;;;;12.71;99.59;95742.94;4357745;32;20177;-62
2022/10/20 03:55:50;;;;;;;5.97;5.40;;;;;;;12.84;99.47;95732.63;4338308;32;20264;-62
2022/10/20 03:58:15;;;;;;;6.57;5.97;;;;;;;12.72;99.14;95730.44;4343631;32;20189;-62
2022/10/20 04:00:40;;;;;;;5.27;4.97;;;;;;;12.71;99.21;95734.97;4357353;32;20219;-62
2022/10/20 04:03:06;;;;;;;10.00;7.80;;;;;;;12.90;98.68;95734.84;4345771;32;20185;-62
2022/10/20 04:05:31;;;;;;;4.10;3.90;;;;;;;12.74;98.98;95737.03;4342310;32;20222;-62
2022/10/20 04:07:56;;;;;;;8.17;6.20;;;;;;;12.81;98.79;95734.00;4348017;32;20181;-63
2022/10/20 04:10:22;;;;;;;22.07;6.83;;;;;;;12.65;99.07;95724.72;4339022;32;20186;-62
2022/10/20 04:12:47;;;;;;;6.93;5.00;;;;;;;12.60;99.60;95722.16;4342398;32;20196;-62
2022/10/20 04:15:13;;;;;;;5.33;4.90;;;;;;;12.51;99.86;95723.94;4334644;32;20219;-62
2022/10/20 04:17:38;;;;;;;6.53;6.07;;;;;;;12.54;100.00;95728.66;4331086;32;20181;-62
2022/10/20 04:20:05;;;;;;;6.83;6.23;;;;;;;12.63;99.54;95726.91;4346691;32;20242;-62
2022/10/20 04:22:30;;;;;;;5.87;5.47;;;;;;;12.60;99.42;95727.50;4339836;32;20229;-62
2022/10/20 04:24:56;;;;;;;7.20;6.50;;;;;;;12.56;99.39;95726.50;4346352;32;20196;-62
2022/10/20 04:27:21;;;;;;;6.47;5.87;;;;;;;12.59;99.30;95728.56;4352144;32;20185;-62
2022/10/20 04:29:46;;;;;;;5.60;5.20;;;;;;;12.62;98.94;95725.31;4345269;32;20216;-62
2022/10/20 04:32:12;;;;;;;6.57;6.07;;;;;;;12.41;99.52;95729.44;4331759;32;20238;-63
2022/10/20 04:34:37;;;;;;;6.63;6.03;;;;;;;12.43;99.42;95728.06;4322409;33;20178;-62
2022/10/20 04:37:03;;;;;;;10.00;6.87;;;;;;;12.39;99.36;95729.75;4358350;32;20272;-62
2022/10/20 04:39:29;;;;;;;6.03;5.63;;;;;;;12.31;99.61;95720.56;4349696;32;20185;-62
2022/10/20 04:41:54;;;;;;;6.07;5.70;;;;;;;12.33;99.61;95721.06;4331023;32;20196;-62
2022/10/20 04:44:19;;;;;;;10.23;6.73;;;;;;;12.37;99.63;95714.06;4343676;32;20289;-62
2022/10/20 04:46:45;;;;;;;13.03;6.60;;;;;;;12.33;99.53;95709.63;4343381;32;20193;-62
2022/10/20 04:49:10;;;;;;;12.50;6.43;;;;;;;12.35;99.46;95716.22;4333282;32;20264;-62
2022/10/20 04:51:35;;;;;;;4.93;4.67;;;;;;;12.38;98.77;95710.31;4344910;32;20224;-62
2022/10/20 04:54:01;;;;;;;7.23;6.60;;;;;;;12.39;98.57;95706.59;4339183;32;20272;-62
2022/10/20 04:56:26;;;;;;;9.57;7.13;;;;;;;12.36;98.62;95712.50;4351229;32;20178;-63
2022/10/20 04:58:54;;;;;;;7.00;6.30;;;;;;;12.30;98.72;95703.00;4327769;32;20257;-62
2022/10/20 05:01:21;;;;;;;6.63;5.97;;;;;;;12.34;98.47;95703.22;4329817;32;20308;-61
2022/10/20 05:03:47;;;;;;;5.97;5.53;;;;;;;12.26;98.58;95712.66;4327301;32;20241;-62
2022/10/20 05:06:18;;;;;;;5.37;4.87;;;;;;;12.14;99.42;95707.03;4341586;32;20200;-62
2022/10/20 05:08:46;;;;;;;7.57;6.97;;;;;;;12.23;99.35;95702.63;4339817;32;20182;-62
2022/10/20 05:11:13;;;;;;;7.43;6.60;;;;;;;12.30;98.56;95696.91;4329908;32;20193;-64
2022/10/20 05:13:38;;;;;;;6.07;5.67;;;;;;;12.27;98.29;95703.59;4347375;32;20258;-62
2022/10/20 05:16:05;;;;;;;7.93;7.23;;;;;;;12.12;98.95;95703.09;4333848;32;20208;-62
2022/10/20 05:18:32;;;;;;;6.33;5.73;;;;;;;12.23;98.57;95696.53;4339360;32;20237;-61
2022/10/20 05:20:58;;;;;;;8.90;8.13;;;;;;;12.31;98.10;95693.16;4344515;32;20181;-62
2022/10/20 05:23:23;;;;;;;5.97;5.57;;;;;;;12.29;98.23;95690.00;4337754;32;20331;-61
2022/10/20 05:25:49;;;;;;;9.27;8.33;;;;;;;12.33;97.62;95686.47;4342104;32;20181;-61
2022/10/20 05:28:14;;;;;;;6.37;5.77;;;;;;;12.31;97.72;95685.97;4328934;32;20233;-62
2022/10/20 05:30:40;;;;;;;7.03;5.83;;;;;;;12.28;97.66;95688.44;4342955;32;20241;-62
2022/10/20 05:33:05;;;;;;;5.77;5.37;;;;;;;12.30;97.82;95686.25;4334615;32;20185;-62
2022/10/20 05:35:31;;;;;;;10.23;6.80;;;;;;;12.15;98.75;95690.00;4344442;32;20373;-62
2022/10/20 05:37:57;;;;;;;6.57;5.93;;;;;;;12.21;98.08;95688.84;4332054;32;20182;-61
2022/10/20 05:40:22;;;;;;;7.50;6.80;;;;;;;12.32;97.69;95694.75;4339781;32;20216;-62
2022/10/20 05:42:48;;;;;;;9.07;6.27;;;;;;;12.31;97.65;95696.63;4327275;32;20185;-60
2022/10/20 05:45:13;;;;;;;4.83;4.57;;;;;;;12.83;100.00;95691.88;4338950;32;20228;-61
2022/10/20 05:47:39;;;;;;;8.37;6.70;;;;;;;13.53;100.00;95693.28;4343572;32;20254;-60
2022/10/20 05:50:05;;;;;;;5.07;4.77;;;;;;;13.38;100.00;95695.22;4343909;32;20384;-61
2022/10/20 05:52:30;;;;;;;8.23;6.67;;;;;;;13.72;100.00;95689.34;4330930;32;20315;-60
2022/10/20 05:54:55;;;;;;;6.17;5.57;;;;;;;13.38;99.08;95699.78;4348034;32;20196;-60
2022/10/20 05:57:21;;;;;;;10.20;5.67;;;;;;;13.51;100.00;95696.25;4350092;32;20216;-60
2022/10/20 05:59:46;;;;;;;5.60;5.13;;;;;;;13.88;100.00;95694.34;4346885;32;20177;-61
2022/10/20 06:02:12;;;;;;;6.00;5.40;;;;;;;13.70;96.07;95688.13;4336615;32;20264;-61
2022/10/20 06:04:37;;;;;;;5.57;5.27;;;;;;;13.50;96.19;95688.59;4351294;32;20235;-61
2022/10/20 06:07:08;;;;;;;9.30;6.90;;;;;;;13.52;97.24;95684.50;4359410;32;20196;-61
2022/10/20 06:09:34;;;;;;;14.27;6.23;;;;;;;13.79;100.00;95688.16;4340783;32;20174;-61
2022/10/20 06:12:00;;;;;;;8.80;5.47;;;;;;;13.72;97.46;95689.34;4340922;32;20224;-60
2022/10/20 06:14:25;;;;;;;15.23;7.10;;;;;;;13.72;99.87;95694.69;4342724;32;20195;-60
2022/10/20 06:16:52;;;;;;;20.33;7.37;;;;;;;13.84;100.00;95696.81;4342381;32;20201;-60
2022/10/20 06:19:18;;;;;;;7.50;5.80;;;;;;;13.73;98.16;95698.94;4339070;32;20217;-60
2022/10/20 06:21:43;;;;;;;10.80;6.17;;;;;;;13.65;98.30;95693.56;4345403;32;20260;-60
2022/10/20 06:24:10;;;;;;;4.10;3.87;;;;;;;13.33;92.65;95697.22;4357522;32;20189;-60
2022/10/20 06:26:36;;;;;;;6.60;5.80;;;;;;;12.92;93.40;95694.63;4331320;32;20207;-60
2022/10/20 06:29:05;;;;;;;9.30;6.40;;;;;;;12.70;94.39;95692.66;4358249;32;20276;-60
2022/10/20 06:31:47;;;;;;;5.73;5.23;;;;;;;12.82;94.60;95698.28;4321474;32;20220;-60
2022/10/20 06:34:20;;;;;;;12.03;6.97;;;;;;;12.86;93.80;95704.59;4298144;33;20247;-61
2022/10/20 06:36:51;;;;;;;6.30;5.80;;;;;;;12.34;95.76;95705.88;4339771;32;20189;-61
2022/10/20 06:39:20;;;;;;;7.57;6.53;;;;;;;12.47;95.79;95707.00;4310707;32;20181;-61
2022/10/20 06:41:51;;;;;;;7.90;7.17;;;;;;;12.19;96.99;95700.84;4284335;33;20190;-61
2022/10/20 06:44:19;;;;;;;5.67;5.17;;;;;;;12.32;96.75;95698.19;4324019;32;20185;-61
2022/10/20 06:46:46;;;;;;;6.87;6.17;;;;;;;12.15;97.54;95699.84;4316001;33;20181;-60
2022/10/20 06:49:15;;;;;;;9.57;6.43;;;;;;;12.17;97.70;95695.81;4339372;32;20212;-60
2022/10/20 06:51:41;;;;;;;7.40;6.90;;;;;;;12.21;97.39;95699.47;4350268;32;20193;-60
2022/10/20 06:54:09;;;;;;;6.90;6.20;;;;;;;12.36;96.44;95696.53;4323362;32;20197;-60
2022/10/20 06:56:38;;;;;;;6.43;5.93;;;;;;;12.38;96.46;95696.22;4320313;32;20268;-60
2022/10/20 06:59:03;;;;;;;6.67;6.23;;;;;;;12.48;96.05;95687.25;4346652;32;20205;-60
2022/10/20 07:01:35;;;;;;;7.30;6.63;;;;;;;12.38;96.72;95678.41;4326493;32;20201;-60
2022/10/20 07:04:08;;;;;;;4.90;4.53;;;;;;;12.43;96.55;95682.06;4339341;32;20243;-61
2022/10/20 07:06:38;;;;;;;6.07;5.47;;;;;;;12.36;96.71;95691.22;4285943;33;20241;-60
2022/10/20 07:09:10;;;;;;;11.13;5.67;;;;;;;12.22;96.83;95694.94;4327170;32;20223;-60
2022/10/20 07:11:37;;;;;;;7.50;5.10;;;;;;;12.16;97.44;95686.25;4338501;32;20215;-60
2022/10/20 07:14:04;;;;;;;6.03;5.43;;;;;;;12.32;97.10;95684.88;4340214;32;20269;-61
2022/10/20 07:16:33;;;;;;;6.77;6.17;;;;;;;12.35;96.57;95681.66;4343045;32;20197;-60
2022/10/20 07:19:00;;;;;;;4.93;4.63;;;;;;;12.17;97.53;95689.72;4301694;33;20292;-60
2022/10/20 07:21:29;;;;;;;5.03;4.57;;;;;;;12.15;98.04;95689.22;4299264;32;20201;-60
2022/10/20 07:24:09;;;;;;;5.60;5.20;;;;;;;12.30;97.14;95684.41;4325063;32;20208;-60
2022/10/20 07:26:38;;;;;;;8.67;5.27;;;;;;;12.27;97.41;95687.63;4291125;33;20181;-61
2022/10/20 07:29:05;;;;;;;4.27;4.07;;;;;;;12.36;96.45;95679.78;4317702;32;20281;-61
2022/10/20 07:31:37;;;;;;;6.13;5.53;;;;;;;12.45;95.98;95685.22;4307605;32;20224;-60
2022/10/20 07:34:07;;;;;;;4.67;4.27;;;;;;;12.30;96.17;95681.72;4301124;33;20310;-61
2022/10/20 07:36:35;;;;;;;6.20;5.73;;;;;;;12.25;96.65;95684.50;4285798;33;20262;-60
2022/10/20 07:39:04;;;;;;;4.97;4.53;;;;;;;12.38;95.93;95689.03;4275951;33;20241;-60
2022/10/20 07:41:36;;;;;;;5.43;4.93;;;;;;;12.42;95.80;95680.47;4313916;32;20287;-60
2022/10/20 07:44:24;;;;;;;4.93;4.53;;;;;;;12.22;96.82;95682.44;4296327;33;20351;-60
2022/10/20 07:46:50;;;;;;;5.10;4.63;;;;;;;12.23;96.42;95681.34;4321426;32;20185;-60
2022/10/20 07:49:19;;;;;;;5.27;4.97;;;;;;;12.34;96.06;95676.62;4336771;32;20190;-60
2022/10/20 07:51:44;;;;;;;6.27;4.83;;;;;;;12.24;96.68;95680.28;4326544;32;20189;-60
2022/10/20 07:54:14;;;;;;;6.13;5.63;;;;;;;12.21;96.47;95678.19;4309236;33;20272;-60
2022/10/20 07:56:43;;;;;;;4.43;4.13;;;;;;;12.42;96.00;95680.47;4311672;32;20178;-60
2022/10/20 07:59:13;;;;;;;4.27;4.03;;;;;;;12.51;95.53;95676.03;4280330;33;20217;-60
2022/10/20 08:01:43;;;;;;;6.97;5.00;;;;;;;12.46;95.61;95673.47;4295150;33;20269;-60
2022/10/20 08:04:10;;;;;;;5.13;4.83;;;;;;;12.61;95.04;95668.62;4310006;32;20177;-60
2022/10/20 08:06:39;;;;;;;7.93;5.73;;;;;;;12.65;94.18;95666.97;4312751;32;20201;-60
2022/10/20 08:09:07;;;;;;;5.30;4.90;;;;;;;12.43;94.71;95658.91;4321707;32;20206;-60
2022/10/20 08:11:34;;;;;;;5.27;4.93;;;;;;;12.20;95.92;95662.53;4321065;32;20276;-60
2022/10/20 08:14:07;;;;;;;6.33;5.03;;;;;;;12.30;95.87;95663.13;4290223;33;20190;-60
2022/10/20 08:16:35;;;;;;;5.87;4.60;;;;;;;12.42;95.82;95664.50;4295591;32;20187;-60
2022/10/20 08:19:01;;;;;;;6.27;5.77;;;;;;;12.52;95.17;95669.63;4302226;33;20218;-60
2022/10/20 08:21:28;;;;;;;5.43;5.03;;;;;;;12.49;95.49;95670.22;4304510;32;20231;-61
2022/10/20 08:23:55;;;;;;;5.63;5.13;;;;;;;12.52;94.94;95661.63;4319262;32;20200;-60
2022/10/20 08:26:24;;;;;;;5.63;5.00;;;;;;;12.48;95.35;95664.09;4327294;32;20345;-61
2022/10/20 08:28:52;;;;;;;5.97;5.27;;;;;;;12.43;95.67;95666.09;4279783;33;20183;-61
2022/10/20 08:31:20;;;;;;;4.57;4.27;;;;;;;12.47;94.98;95654.53;4306579;33;20186;-60
2022/10/20 08:33:48;;;;;;;4.60;4.20;;;;;;;12.39;95.03;95657.91;4315259;32;20182;-60
2022/10/20 08:36:14;;;;;;;4.20;3.80;;;;;;;12.44;95.13;95659.69;4330198;32;20178;-61
2022/10/20 08:38:47;;;;;;;5.60;4.93;;;;;;;12.51;94.94;95657.41;4295363;33;20182;-60
2022/10/20 08:41:43;;;;;;;4.07;3.73;;;;;;;12.47;94.84;95654.53;4307979;33;20236;-63
2022/10/20 08:44:18;;;;;;;4.17;3.97;;;;;;;12.55;94.61;95653.84;4313809;33;20191;-60
2022/10/20 08:46:47;;;;;;;3.30;3.07;;;;;;;12.50;94.83;95661.12;4299421;33;20181;-60
2022/10/20 08:49:20;;;;;;;4.87;4.40;;;;;;;12.41;94.67;95662.94;4312856;33;20194;-61
2022/10/20 08:51:47;;;;;;;4.50;4.23;;;;;;;12.33;94.97;95659.88;4296723;32;20200;-61
2022/10/20 08:54:15;;;;;;;3.90;3.60;;;;;;;12.30;95.19;95657.78;4314795;33;20178;-62
2022/10/20 08:56:43;;;;;;;4.10;3.80;;;;;;;12.29;95.39;95650.91;4313725;32;20188;-60
2022/10/20 08:59:39;;;;;;;3.83;3.63;;;;;;;12.30;94.89;95655.13;4299584;33;20186;-60
2022/10/20 09:02:14;;;;;;;4.33;4.03;;;;;;;12.46;94.85;95652.19;4297946;33;20197;-60
2022/10/20 09:04:58;;;;;;;3.17;2.97;;;;;;;12.27;94.92;95652.28;4327809;32;20191;-61
2022/10/20 09:07:38;;;;;;;3.40;3.20;;;;;;;12.29;94.55;95650.09;4303356;33;20178;-60
2022/10/20 09:10:41;;;;;;;3.50;2.90;;;;;;;12.42;94.02;95648.53;4307536;32;20208;-60
2022/10/20 09:13:29;;;;;;;3.40;3.20;;;;;;;12.46;94.07;95652.19;4245491;33;20182;-61
2022/10/20 09:16:02;;;;;;;3.37;3.10;;;;;;;12.49;93.93;95652.38;4270670;33;20218;-60
2022/10/20 09:18:31;;;;;;;3.70;3.40;;;;;;;12.54;93.19;95648.81;4231735;33;20187;-60
2022/10/20 09:21:00;;;;;;;4.00;3.80;;;;;;;12.67;92.81;95648.81;4276742;33;20195;-61
2022/10/20 09:23:40;;;;;;;3.03;2.93;;;;;;;12.69;92.75;95648.50;4270542;33;20211;-61
2022/10/20 09:26:43;;;;;;;2.93;2.73;;;;;;;12.57;92.87;95646.34;4275896;33;20209;-60
2022/10/20 09:29:18;;;;;;;3.33;3.13;;;;;;;12.73;92.99;95634.31;4289888;33;20186;-60
2022/10/20 09:31:54;;;;;;;12.93;3.97;;;;;;;12.82;92.81;95633.59;4291891;33;20197;-61
2022/10/20 09:34:34;;;;;;;2.87;2.77;;;;;;;12.98;91.65;95640.97;4240498;33;20196;-60
2022/10/20 09:37:26;;;;;;;2.27;2.17;;;;;;;12.86;91.69;95639.91;4285771;33;20198;-60
2022/10/20 09:39:58;;;;;;;3.47;3.27;;;;;;;13.02;91.32;95649.94;4306573;33;20221;-60
2022/10/20 09:42:34;;;;;;;3.20;3.00;;;;;;;12.91;91.33;95653.88;4293442;33;20190;-60
2022/10/20 09:45:11;;;;;;;3.17;2.97;;;;;;;12.86;91.45;95651.34;4317735;32;20199;-60
2022/10/20 09:47:47;;;;;;;3.63;2.80;;;;;;;12.98;91.40;95648.94;4314743;32;20209;-60
2022/10/20 09:50:22;;;;;;;4.63;3.57;;;;;;;13.06;90.91;95650.13;4307721;32;20195;-62
2022/10/20 09:52:48;;;;;;;2.33;2.23;;;;;;;13.03;90.80;95651.50;4272198;33;20264;-60
2022/10/20 09:55:41;;;;;;;3.90;3.53;;;;;;;13.28;89.77;95652.06;4281410;33;20204;-60
2022/10/20 09:58:37;;;;;;;2.63;2.43;;;;;;;13.23;90.28;95652.16;4275068;33;20194;-60
2022/10/20 10:01:24;;;;;;;2.80;2.60;;;;;;;13.10;90.15;95643.09;4267224;33;20347;-60
2022/10/20 10:03:54;;;;;;;2.80;2.70;;;;;;;13.14;89.85;95645.94;4288695;33;20210;-60
2022/10/20 10:06:45;;;;;;;3.23;3.07;;;;;;;13.22;90.13;95631.94;4304891;32;20292;-60
2022/10/20 10:09:36;;;;;;;2.37;2.27;;;;;;;13.29;90.11;95633.09;4339318;32;20240;-60
2022/10/20 10:12:19;;;;;;;3.03;2.83;;;;;;;13.33;90.18;95633.25;4290092;33;20383;-61
2022/10/20 10:15:03;;;;;;;2.63;2.43;;;;;;;13.40;90.16;95629.09;4283500;33;20181;-61
2022/10/20 10:17:56;;;;;;;3.87;3.57;;;;;;;13.51;89.92;95618.97;4308309;32;20177;-60
2022/10/20 10:20:31;;;;;;;2.93;2.73;;;;;;;13.57;88.82;95623.09;4302992;33;20186;-60
2022/10/20 10:23:28;;;;;;;4.00;3.70;;;;;;;13.57;88.91;95611.63;4308965;32;20326;-60
2022/10/20 10:25:57;;;;;;;3.30;3.00;;;;;;;13.56;88.96;95621.50;4325158;32;20256;-60
2022/10/20 10:28:56;;;;;;;3.87;3.17;;;;;;;13.60;88.80;95625.16;4350455;32;20181;-61
2022/10/20 10:31:24;;;;;;;2.73;2.60;;;;;;;13.61;88.96;95629.38;4320017;32;20240;-60
2022/10/20 10:34:13;;;;;;;2.70;2.57;;;;;;;13.63;88.48;95632.53;4312607;33;20182;-60
2022/10/20 10:36:40;;;;;;;3.20;3.00;;;;;;;13.70;88.29;95632.91;4312556;33;20182;-61
2022/10/20 10:39:13;;;;;;;2.27;2.17;;;;;;;13.73;88.80;95621.59;4311500;32;20231;-60
2022/10/20 10:42:16;;;;;;;2.60;2.40;;;;;;;13.83;89.12;95609.91;4322865;33;20197;-61
2022/10/20 10:45:18;;;;;;;2.77;2.57;;;;;;;13.95;88.51;95614.66;4314799;33;20191;-61
2022/10/20 10:48:24;;;;;;;2.87;2.77;;;;;;;14.16;88.06;95620.25;4314494;33;20191;-60
2022/10/20 10:51:02;;;;;;;4.40;2.90;;;;;;;14.23;87.87;95617.91;4329438;33;20197;-61
2022/10/20 10:54:18;;;;;;;2.37;2.23;;;;;;;14.35;87.36;95602.87;4336828;32;20252;-61
2022/10/20 10:56:51;;;;;;;3.27;2.97;;;;;;;14.28;86.96;95599.91;4241075;33;20180;-61
2022/10/20 10:59:36;;;;;;;8.33;3.43;;;;;;;14.42;86.27;95592.56;4276834;33;20194;-61
2022/10/20 11:02:06;;;;;;;4.53;2.60;;;;;;;14.46;86.07;95589.28;4289753;33;20358;-61
2022/10/20 11:04:57;;;;;;;2.67;2.57;;;;;;;14.42;85.87;95583.78;4244385;33;20242;-60
2022/10/20 11:07:43;;;;;;;2.07;1.90;;;;;;;14.55;85.72;95584.78;4333835;33;20204;-61
2022/10/20 11:10:21;;;;;;;2.40;2.30;;;;;;;14.48;86.21;95584.44;4340143;32;20261;-61
2022/10/20 11:13:02;;;;;;;2.50;2.40;;;;;;;14.65;84.31;95577.22;4332713;32;20188;-61
2022/10/20 11:16:14;;;;;;;2.20;2.10;;;;;;;14.63;83.95;95562.63;4351405;32;20304;-60
2022/10/20 11:19:34;;;;;;;2.77;2.57;;;;;;;14.59;84.24;95550.97;4282530;33;20187;-61
2022/10/20 11:22:17;;;;;;;2.57;2.47;;;;;;;14.67;84.70;95553.69;4279015;33;20229;-60
2022/10/20 11:25:12;;;;;;;1.40;1.40;;;;;;;14.73;84.60;95551.66;4270389;33;20182;-61
2022/10/20 11:27:40;;;;;;;4.23;2.17;;;;;;;14.78;84.71;95554.12;4255403;33;20226;-60
2022/10/20 11:30:34;;;;;;;1.87;1.70;;;;;;;14.81;84.36;95555.41;4298816;33;20206;-60
2022/10/20 11:33:18;;;;;;;3.23;2.83;;;;;;;14.99;83.71;95554.28;4279996;33;20202;-60
2022/10/20 11:36:30;;;;;;;1.67;1.67;;;;;;;15.01;83.22;95546.75;4255842;33;20206;-61
2022/10/20 11:39:05;;;;;;;2.30;2.20;;;;;;;15.08;83.38;95550.53;4276969;33;20203;-60
2022/10/20 11:41:45;;;;;;;3.67;2.63;;;;;;;15.10;83.61;95551.00;4309134;33;20181;-61
2022/10/20 11:44:23;;;;;;;2.37;2.27;;;;;;;15.16;83.51;95542.84;4268958;33;20314;-61
2022/10/20 11:47:12;;;;;;;8.60;1.93;;;;;;;15.30;82.52;95546.09;4284474;33;20200;-61
2022/10/20 11:49:44;;;;;;;2.63;2.00;;;;;;;15.34;82.95;95557.75;4265194;33;20183;-61